sensor_id;sensor_type;location;lat;lon;timestamp;P1;durP1;ratioP1;P2;durP2;ratioP2
4307;SDS011;2167;53.448;9.984;2023-08-20T00:00:51;9.23;;;4.37;;
4307;SDS011;2167;53.448;9.984;2023-08-20T00:03:17;9.23;;;5.00;;
4307;SDS011;2167;53.448;9.984;2023-08-20T00:05:43;7.07;;;4.57;;
4307;SDS011;2167;53.448;9.984;2023-08-20T00:08:09;7.00;;;4.27;;
4307;SDS011;2167;53.448;9.984;2023-08-20T00:10:35;4.80;;;4.10;;
4307;SDS011;2167;53.448;9.984;2023-08-20T00:13:02;15.53;;;5.40;;
4307;SDS011;2167;53.448;9.984;2023-08-20T00:15:29;11.67;;;4.90;;
4307;SDS011;2167;53.448;9.984;2023-08-20T00:17:55;9.17;;;4.77;;
4307;SDS011;2167;53.448;9.984;2023-08-20T00:20:21;10.03;;;5.30;;
4307;SDS011;2167;53.448;9.984;2023-08-20T00:22:48;10.23;;;5.13;;
4307;SDS011;2167;53.448;9.984;2023-08-20T00:25:14;9.07;;;4.93;;
4307;SDS011;2167;53.448;9.984;2023-08-20T00:27:41;8.13;;;4.10;;
4307;SDS011;2167;53.448;9.984;2023-08-20T00:30:07;6.70;;;4.40;;
4307;SDS011;2167;53.448;9.984;2023-08-20T00:32:34;11.37;;;4.63;;
4307;SDS011;2167;53.448;9.984;2023-08-20T00:35:00;6.13;;;4.23;;
4307;SDS011;2167;53.448;9.984;2023-08-20T00:37:27;10.07;;;3.90;;
4307;SDS011;2167;53.448;9.984;2023-08-20T00:39:53;7.43;;;3.50;;
4307;SDS011;2167;53.448;9.984;2023-08-20T00:42:19;7.63;;;3.57;;
4307;SDS011;2167;53.448;9.984;2023-08-20T00:44:45;6.20;;;4.30;;
4307;SDS011;2167;53.448;9.984;2023-08-20T00:47:12;10.93;;;5.03;;
4307;SDS011;2167;53.448;9.984;2023-08-20T00:49:39;7.90;;;4.10;;
4307;SDS011;2167;53.448;9.984;2023-08-20T00:52:05;7.53;;;4.63;;
4307;SDS011;2167;53.448;9.984;2023-08-20T00:54:33;12.70;;;5.10;;
4307;SDS011;2167;53.448;9.984;2023-08-20T00:56:59;7.30;;;4.20;;
4307;SDS011;2167;53.448;9.984;2023-08-20T00:59:26;7.80;;;4.13;;
4307;SDS011;2167;53.448;9.984;2023-08-20T01:01:52;6.40;;;4.73;;
4307;SDS011;2167;53.448;9.984;2023-08-20T01:04:18;9.50;;;5.10;;
4307;SDS011;2167;53.448;9.984;2023-08-20T01:06:58;8.23;;;4.80;;
4307;SDS011;2167;53.448;9.984;2023-08-20T01:09:43;11.53;;;5.40;;
4307;SDS011;2167;53.448;9.984;2023-08-20T01:12:11;5.17;;;4.47;;
4307;SDS011;2167;53.448;9.984;2023-08-20T01:14:39;7.13;;;4.30;;
4307;SDS011;2167;53.448;9.984;2023-08-20T01:17:05;7.93;;;4.03;;
4307;SDS011;2167;53.448;9.984;2023-08-20T01:19:31;10.23;;;4.40;;
4307;SDS011;2167;53.448;9.984;2023-08-20T01:27:19;12.77;;;5.50;;
4307;SDS011;2167;53.448;9.984;2023-08-20T01:29:50;8.03;;;4.60;;
4307;SDS011;2167;53.448;9.984;2023-08-20T01:32:16;6.80;;;5.20;;
4307;SDS011;2167;53.448;9.984;2023-08-20T01:34:42;8.23;;;5.27;;
4307;SDS011;2167;53.448;9.984;2023-08-20T01:37:10;6.40;;;4.30;;
4307;SDS011;2167;53.448;9.984;2023-08-20T01:39:36;7.33;;;4.50;;
4307;SDS011;2167;53.448;9.984;2023-08-20T01:42:02;5.83;;;3.87;;
4307;SDS011;2167;53.448;9.984;2023-08-20T01:44:28;9.70;;;4.20;;
4307;SDS011;2167;53.448;9.984;2023-08-20T01:46:54;12.67;;;5.23;;
4307;SDS011;2167;53.448;9.984;2023-08-20T01:49:20;8.03;;;4.60;;
4307;SDS011;2167;53.448;9.984;2023-08-20T01:51:46;7.40;;;5.13;;
4307;SDS011;2167;53.448;9.984;2023-08-20T01:54:12;7.40;;;4.30;;
4307;SDS011;2167;53.448;9.984;2023-08-20T01:56:38;10.80;;;4.60;;
4307;SDS011;2167;53.448;9.984;2023-08-20T01:59:04;8.87;;;4.00;;
4307;SDS011;2167;53.448;9.984;2023-08-20T02:01:30;7.20;;;4.30;;
4307;SDS011;2167;53.448;9.984;2023-08-20T02:03:56;6.43;;;4.63;;
4307;SDS011;2167;53.448;9.984;2023-08-20T02:06:22;6.70;;;4.90;;
4307;SDS011;2167;53.448;9.984;2023-08-20T02:08:48;8.70;;;4.50;;
4307;SDS011;2167;53.448;9.984;2023-08-20T02:11:14;6.87;;;4.50;;
4307;SDS011;2167;53.448;9.984;2023-08-20T02:13:40;6.47;;;3.87;;
4307;SDS011;2167;53.448;9.984;2023-08-20T02:16:06;9.40;;;4.90;;
4307;SDS011;2167;53.448;9.984;2023-08-20T02:18:32;5.23;;;3.97;;
4307;SDS011;2167;53.448;9.984;2023-08-20T02:20:58;8.57;;;4.97;;
4307;SDS011;2167;53.448;9.984;2023-08-20T02:23:24;9.77;;;5.27;;
4307;SDS011;2167;53.448;9.984;2023-08-20T02:25:50;13.53;;;4.67;;
4307;SDS011;2167;53.448;9.984;2023-08-20T02:28:17;7.13;;;4.30;;
4307;SDS011;2167;53.448;9.984;2023-08-20T02:30:43;13.23;;;4.47;;
4307;SDS011;2167;53.448;9.984;2023-08-20T02:33:10;9.23;;;3.97;;
4307;SDS011;2167;53.448;9.984;2023-08-20T02:35:37;6.17;;;4.67;;
4307;SDS011;2167;53.448;9.984;2023-08-20T02:38:03;5.70;;;3.70;;
4307;SDS011;2167;53.448;9.984;2023-08-20T02:40:30;12.27;;;4.60;;
4307;SDS011;2167;53.448;9.984;2023-08-20T02:42:56;6.57;;;4.13;;
4307;SDS011;2167;53.448;9.984;2023-08-20T02:45:22;6.63;;;3.70;;
4307;SDS011;2167;53.448;9.984;2023-08-20T02:47:49;6.57;;;4.50;;
4307;SDS011;2167;53.448;9.984;2023-08-20T02:50:15;8.30;;;4.60;;
4307;SDS011;2167;53.448;9.984;2023-08-20T02:52:42;7.70;;;4.30;;
4307;SDS011;2167;53.448;9.984;2023-08-20T02:55:08;5.10;;;3.77;;
4307;SDS011;2167;53.448;9.984;2023-08-20T02:57:34;8.60;;;5.60;;
4307;SDS011;2167;53.448;9.984;2023-08-20T03:00:00;8.53;;;4.17;;
4307;SDS011;2167;53.448;9.984;2023-08-20T03:02:27;7.00;;;3.93;;
4307;SDS011;2167;53.448;9.984;2023-08-20T03:04:53;8.20;;;4.67;;
4307;SDS011;2167;53.448;9.984;2023-08-20T03:07:21;12.50;;;4.30;;
4307;SDS011;2167;53.448;9.984;2023-08-20T03:09:47;5.10;;;3.57;;
4307;SDS011;2167;53.448;9.984;2023-08-20T03:12:13;7.13;;;3.77;;
4307;SDS011;2167;53.448;9.984;2023-08-20T03:14:39;8.20;;;3.80;;
4307;SDS011;2167;53.448;9.984;2023-08-20T03:17:05;6.07;;;3.90;;
4307;SDS011;2167;53.448;9.984;2023-08-20T03:19:32;10.07;;;3.87;;
4307;SDS011;2167;53.448;9.984;2023-08-20T03:22:00;6.27;;;4.20;;
4307;SDS011;2167;53.448;9.984;2023-08-20T03:24:26;10.27;;;4.73;;
4307;SDS011;2167;53.448;9.984;2023-08-20T03:26:52;5.70;;;3.17;;
4307;SDS011;2167;53.448;9.984;2023-08-20T03:29:17;5.53;;;3.97;;
4307;SDS011;2167;53.448;9.984;2023-08-20T03:31:43;6.00;;;3.30;;
4307;SDS011;2167;53.448;9.984;2023-08-20T03:34:09;4.07;;;3.40;;
4307;SDS011;2167;53.448;9.984;2023-08-20T03:36:36;7.00;;;3.70;;
4307;SDS011;2167;53.448;9.984;2023-08-20T03:39:02;9.63;;;4.27;;
4307;SDS011;2167;53.448;9.984;2023-08-20T03:41:28;7.30;;;3.97;;
4307;SDS011;2167;53.448;9.984;2023-08-20T03:43:54;7.40;;;4.57;;
4307;SDS011;2167;53.448;9.984;2023-08-20T03:46:20;9.20;;;3.77;;
4307;SDS011;2167;53.448;9.984;2023-08-20T03:48:46;8.47;;;3.37;;
4307;SDS011;2167;53.448;9.984;2023-08-20T03:51:12;6.43;;;4.00;;
4307;SDS011;2167;53.448;9.984;2023-08-20T03:53:38;4.47;;;3.27;;
4307;SDS011;2167;53.448;9.984;2023-08-20T03:56:04;14.03;;;4.17;;
4307;SDS011;2167;53.448;9.984;2023-08-20T03:58:30;9.47;;;3.70;;
4307;SDS011;2167;53.448;9.984;2023-08-20T04:00:57;4.80;;;3.63;;
4307;SDS011;2167;53.448;9.984;2023-08-20T04:03:23;5.83;;;3.87;;
4307;SDS011;2167;53.448;9.984;2023-08-20T04:05:49;4.40;;;3.30;;
4307;SDS011;2167;53.448;9.984;2023-08-20T04:08:16;7.47;;;3.50;;
4307;SDS011;2167;53.448;9.984;2023-08-20T04:10:42;5.40;;;4.03;;
4307;SDS011;2167;53.448;9.984;2023-08-20T04:13:10;9.00;;;3.60;;
4307;SDS011;2167;53.448;9.984;2023-08-20T04:15:36;4.17;;;3.47;;
4307;SDS011;2167;53.448;9.984;2023-08-20T04:18:02;4.53;;;3.50;;
4307;SDS011;2167;53.448;9.984;2023-08-20T04:20:28;7.27;;;3.00;;
4307;SDS011;2167;53.448;9.984;2023-08-20T04:22:54;5.00;;;3.67;;
4307;SDS011;2167;53.448;9.984;2023-08-20T04:25:20;3.40;;;3.10;;
4307;SDS011;2167;53.448;9.984;2023-08-20T04:27:46;6.00;;;3.13;;
4307;SDS011;2167;53.448;9.984;2023-08-20T04:30:12;4.27;;;3.03;;
4307;SDS011;2167;53.448;9.984;2023-08-20T04:32:38;7.87;;;4.00;;
4307;SDS011;2167;53.448;9.984;2023-08-20T04:35:04;5.80;;;4.13;;
4307;SDS011;2167;53.448;9.984;2023-08-20T04:37:31;3.83;;;3.43;;
4307;SDS011;2167;53.448;9.984;2023-08-20T04:39:56;7.23;;;3.70;;
4307;SDS011;2167;53.448;9.984;2023-08-20T04:42:22;3.97;;;3.27;;
4307;SDS011;2167;53.448;9.984;2023-08-20T04:44:49;5.27;;;4.00;;
4307;SDS011;2167;53.448;9.984;2023-08-20T04:47:15;3.63;;;3.20;;
4307;SDS011;2167;53.448;9.984;2023-08-20T04:49:41;5.47;;;3.50;;
4307;SDS011;2167;53.448;9.984;2023-08-20T04:52:07;2.67;;;2.47;;
4307;SDS011;2167;53.448;9.984;2023-08-20T04:54:33;4.63;;;3.27;;
4307;SDS011;2167;53.448;9.984;2023-08-20T04:56:59;5.47;;;3.37;;
4307;SDS011;2167;53.448;9.984;2023-08-20T04:59:25;5.90;;;3.93;;
4307;SDS011;2167;53.448;9.984;2023-08-20T05:01:51;4.23;;;2.80;;
4307;SDS011;2167;53.448;9.984;2023-08-20T05:04:17;5.60;;;4.80;;
4307;SDS011;2167;53.448;9.984;2023-08-20T05:06:43;4.03;;;3.10;;
4307;SDS011;2167;53.448;9.984;2023-08-20T05:09:09;3.40;;;2.87;;
4307;SDS011;2167;53.448;9.984;2023-08-20T05:11:35;3.27;;;2.87;;
4307;SDS011;2167;53.448;9.984;2023-08-20T05:14:03;4.10;;;2.87;;
4307;SDS011;2167;53.448;9.984;2023-08-20T05:16:29;8.10;;;4.20;;
4307;SDS011;2167;53.448;9.984;2023-08-20T05:18:55;5.10;;;3.57;;
4307;SDS011;2167;53.448;9.984;2023-08-20T05:21:21;6.00;;;4.00;;
4307;SDS011;2167;53.448;9.984;2023-08-20T05:23:46;9.07;;;3.60;;
4307;SDS011;2167;53.448;9.984;2023-08-20T05:26:12;4.10;;;3.57;;
4307;SDS011;2167;53.448;9.984;2023-08-20T05:28:38;4.93;;;4.03;;
4307;SDS011;2167;53.448;9.984;2023-08-20T05:31:04;5.40;;;4.40;;
4307;SDS011;2167;53.448;9.984;2023-08-20T05:33:30;5.23;;;3.40;;
4307;SDS011;2167;53.448;9.984;2023-08-20T05:35:57;4.60;;;3.10;;
4307;SDS011;2167;53.448;9.984;2023-08-20T05:38:23;6.20;;;4.70;;
4307;SDS011;2167;53.448;9.984;2023-08-20T05:40:49;6.83;;;4.07;;
4307;SDS011;2167;53.448;9.984;2023-08-20T05:43:15;6.97;;;4.73;;
4307;SDS011;2167;53.448;9.984;2023-08-20T05:45:41;8.63;;;5.10;;
4307;SDS011;2167;53.448;9.984;2023-08-20T05:48:07;10.67;;;5.27;;
4307;SDS011;2167;53.448;9.984;2023-08-20T05:50:33;8.03;;;5.10;;
4307;SDS011;2167;53.448;9.984;2023-08-20T05:53:00;10.47;;;5.00;;
4307;SDS011;2167;53.448;9.984;2023-08-20T05:55:26;7.60;;;6.10;;
4307;SDS011;2167;53.448;9.984;2023-08-20T05:57:52;8.83;;;4.93;;
4307;SDS011;2167;53.448;9.984;2023-08-20T06:00:18;10.13;;;5.43;;
4307;SDS011;2167;53.448;9.984;2023-08-20T06:02:45;9.63;;;5.90;;
4307;SDS011;2167;53.448;9.984;2023-08-20T06:05:11;11.90;;;6.57;;
4307;SDS011;2167;53.448;9.984;2023-08-20T06:07:36;13.63;;;6.97;;
4307;SDS011;2167;53.448;9.984;2023-08-20T06:10:02;14.33;;;7.43;;
4307;SDS011;2167;53.448;9.984;2023-08-20T06:12:28;10.97;;;6.07;;
4307;SDS011;2167;53.448;9.984;2023-08-20T06:14:55;10.60;;;6.83;;
4307;SDS011;2167;53.448;9.984;2023-08-20T06:17:21;14.13;;;7.23;;
4307;SDS011;2167;53.448;9.984;2023-08-20T06:19:47;17.67;;;7.90;;
4307;SDS011;2167;53.448;9.984;2023-08-20T06:22:13;12.30;;;7.10;;
4307;SDS011;2167;53.448;9.984;2023-08-20T06:24:39;21.10;;;8.50;;
4307;SDS011;2167;53.448;9.984;2023-08-20T06:27:05;14.90;;;8.10;;
4307;SDS011;2167;53.448;9.984;2023-08-20T06:29:31;22.57;;;9.10;;
4307;SDS011;2167;53.448;9.984;2023-08-20T06:31:57;22.67;;;8.40;;
4307;SDS011;2167;53.448;9.984;2023-08-20T06:34:23;15.93;;;8.17;;
4307;SDS011;2167;53.448;9.984;2023-08-20T06:36:49;13.53;;;7.20;;
4307;SDS011;2167;53.448;9.984;2023-08-20T06:39:15;18.70;;;8.00;;
4307;SDS011;2167;53.448;9.984;2023-08-20T06:41:41;13.13;;;6.87;;
4307;SDS011;2167;53.448;9.984;2023-08-20T06:44:07;14.73;;;6.90;;
4307;SDS011;2167;53.448;9.984;2023-08-20T06:46:34;14.63;;;8.80;;
4307;SDS011;2167;53.448;9.984;2023-08-20T06:49:00;9.20;;;6.20;;
4307;SDS011;2167;53.448;9.984;2023-08-20T06:51:26;13.90;;;7.43;;
4307;SDS011;2167;53.448;9.984;2023-08-20T06:53:53;14.87;;;7.57;;
4307;SDS011;2167;53.448;9.984;2023-08-20T06:56:20;14.83;;;7.03;;
4307;SDS011;2167;53.448;9.984;2023-08-20T06:58:46;15.90;;;7.37;;
4307;SDS011;2167;53.448;9.984;2023-08-20T07:01:12;22.00;;;8.20;;
4307;SDS011;2167;53.448;9.984;2023-08-20T07:03:39;15.00;;;8.60;;
4307;SDS011;2167;53.448;9.984;2023-08-20T07:06:05;14.83;;;7.77;;
4307;SDS011;2167;53.448;9.984;2023-08-20T07:08:31;21.83;;;8.33;;
4307;SDS011;2167;53.448;9.984;2023-08-20T07:10:57;13.13;;;6.30;;
4307;SDS011;2167;53.448;9.984;2023-08-20T07:13:23;13.03;;;7.23;;
4307;SDS011;2167;53.448;9.984;2023-08-20T07:15:50;10.93;;;6.37;;
4307;SDS011;2167;53.448;9.984;2023-08-20T07:18:16;11.90;;;6.90;;
4307;SDS011;2167;53.448;9.984;2023-08-20T07:20:42;18.77;;;6.10;;
4307;SDS011;2167;53.448;9.984;2023-08-20T07:23:09;11.30;;;6.20;;
4307;SDS011;2167;53.448;9.984;2023-08-20T07:25:38;12.40;;;5.77;;
4307;SDS011;2167;53.448;9.984;2023-08-20T07:28:04;14.20;;;6.20;;
4307;SDS011;2167;53.448;9.984;2023-08-20T07:30:31;11.97;;;5.73;;
4307;SDS011;2167;53.448;9.984;2023-08-20T07:32:57;7.40;;;4.00;;
4307;SDS011;2167;53.448;9.984;2023-08-20T07:35:23;11.27;;;4.50;;
4307;SDS011;2167;53.448;9.984;2023-08-20T07:37:50;7.43;;;4.60;;
4307;SDS011;2167;53.448;9.984;2023-08-20T07:40:16;9.20;;;4.20;;
4307;SDS011;2167;53.448;9.984;2023-08-20T07:42:43;5.03;;;4.00;;
4307;SDS011;2167;53.448;9.984;2023-08-20T07:45:09;6.50;;;3.63;;
4307;SDS011;2167;53.448;9.984;2023-08-20T07:47:36;4.07;;;2.93;;
4307;SDS011;2167;53.448;9.984;2023-08-20T07:50:03;8.40;;;4.63;;
4307;SDS011;2167;53.448;9.984;2023-08-20T07:52:29;7.07;;;3.83;;
4307;SDS011;2167;53.448;9.984;2023-08-20T07:54:55;10.83;;;3.93;;
4307;SDS011;2167;53.448;9.984;2023-08-20T07:57:21;6.67;;;3.80;;
4307;SDS011;2167;53.448;9.984;2023-08-20T07:59:48;6.50;;;3.80;;
4307;SDS011;2167;53.448;9.984;2023-08-20T08:02:14;6.90;;;3.10;;
4307;SDS011;2167;53.448;9.984;2023-08-20T08:04:40;3.37;;;2.53;;
4307;SDS011;2167;53.448;9.984;2023-08-20T08:07:06;5.30;;;2.37;;
4307;SDS011;2167;53.448;9.984;2023-08-20T08:09:32;3.13;;;2.20;;
4307;SDS011;2167;53.448;9.984;2023-08-20T08:11:58;2.00;;;1.70;;
4307;SDS011;2167;53.448;9.984;2023-08-20T08:14:24;4.90;;;1.60;;
4307;SDS011;2167;53.448;9.984;2023-08-20T08:16:50;2.33;;;1.87;;
4307;SDS011;2167;53.448;9.984;2023-08-20T08:19:16;2.50;;;2.27;;
4307;SDS011;2167;53.448;9.984;2023-08-20T08:21:43;7.83;;;2.87;;
4307;SDS011;2167;53.448;9.984;2023-08-20T08:24:12;1.77;;;1.67;;
4307;SDS011;2167;53.448;9.984;2023-08-20T08:26:39;3.77;;;1.77;;
4307;SDS011;2167;53.448;9.984;2023-08-20T08:29:06;7.00;;;2.17;;
4307;SDS011;2167;53.448;9.984;2023-08-20T08:31:33;3.23;;;1.60;;
4307;SDS011;2167;53.448;9.984;2023-08-20T08:33:59;4.93;;;1.87;;
4307;SDS011;2167;53.448;9.984;2023-08-20T08:36:25;3.83;;;1.77;;
4307;SDS011;2167;53.448;9.984;2023-08-20T08:38:52;1.37;;;1.17;;
4307;SDS011;2167;53.448;9.984;2023-08-20T08:41:18;3.33;;;1.33;;
4307;SDS011;2167;53.448;9.984;2023-08-20T08:43:46;1.90;;;1.53;;
4307;SDS011;2167;53.448;9.984;2023-08-20T08:46:13;6.97;;;1.60;;
4307;SDS011;2167;53.448;9.984;2023-08-20T08:48:40;1.80;;;1.60;;
4307;SDS011;2167;53.448;9.984;2023-08-20T08:51:06;3.40;;;2.00;;
4307;SDS011;2167;53.448;9.984;2023-08-20T08:53:32;7.63;;;1.67;;
4307;SDS011;2167;53.448;9.984;2023-08-20T08:55:59;2.80;;;1.60;;
4307;SDS011;2167;53.448;9.984;2023-08-20T08:58:25;2.70;;;1.87;;
4307;SDS011;2167;53.448;9.984;2023-08-20T09:00:51;3.97;;;1.27;;
4307;SDS011;2167;53.448;9.984;2023-08-20T09:03:17;4.17;;;1.43;;
4307;SDS011;2167;53.448;9.984;2023-08-20T09:05:47;2.63;;;2.03;;
4307;SDS011;2167;53.448;9.984;2023-08-20T09:08:20;4.93;;;1.80;;
4307;SDS011;2167;53.448;9.984;2023-08-20T09:10:46;3.37;;;1.37;;
4307;SDS011;2167;53.448;9.984;2023-08-20T09:13:15;4.50;;;1.63;;
4307;SDS011;2167;53.448;9.984;2023-08-20T09:15:41;5.53;;;1.90;;
4307;SDS011;2167;53.448;9.984;2023-08-20T09:18:10;3.60;;;1.53;;
4307;SDS011;2167;53.448;9.984;2023-08-20T09:20:36;3.60;;;2.00;;
4307;SDS011;2167;53.448;9.984;2023-08-20T09:23:03;4.60;;;2.00;;
4307;SDS011;2167;53.448;9.984;2023-08-20T09:25:29;3.83;;;1.90;;
4307;SDS011;2167;53.448;9.984;2023-08-20T09:27:55;2.60;;;2.07;;
4307;SDS011;2167;53.448;9.984;2023-08-20T09:30:21;5.63;;;2.63;;
4307;SDS011;2167;53.448;9.984;2023-08-20T09:33:02;3.80;;;2.70;;
4307;SDS011;2167;53.448;9.984;2023-08-20T09:35:28;3.50;;;2.07;;
4307;SDS011;2167;53.448;9.984;2023-08-20T09:38:01;3.63;;;2.00;;
4307;SDS011;2167;53.448;9.984;2023-08-20T09:40:28;4.93;;;3.20;;
4307;SDS011;2167;53.448;9.984;2023-08-20T09:42:54;8.27;;;2.37;;
4307;SDS011;2167;53.448;9.984;2023-08-20T09:45:20;4.50;;;2.80;;
4307;SDS011;2167;53.448;9.984;2023-08-20T09:47:49;3.03;;;2.20;;
4307;SDS011;2167;53.448;9.984;2023-08-20T09:50:19;2.33;;;2.13;;
4307;SDS011;2167;53.448;9.984;2023-08-20T09:52:57;4.50;;;2.40;;
4307;SDS011;2167;53.448;9.984;2023-08-20T09:55:27;4.90;;;2.60;;
4307;SDS011;2167;53.448;9.984;2023-08-20T09:57:54;4.70;;;2.20;;
4307;SDS011;2167;53.448;9.984;2023-08-20T10:00:22;3.40;;;2.53;;
4307;SDS011;2167;53.448;9.984;2023-08-20T10:02:48;5.87;;;2.80;;
4307;SDS011;2167;53.448;9.984;2023-08-20T10:05:15;3.23;;;2.27;;
4307;SDS011;2167;53.448;9.984;2023-08-20T10:07:41;3.80;;;2.53;;
4307;SDS011;2167;53.448;9.984;2023-08-20T10:10:08;7.27;;;2.70;;
4307;SDS011;2167;53.448;9.984;2023-08-20T10:12:37;3.03;;;2.80;;
4307;SDS011;2167;53.448;9.984;2023-08-20T10:15:09;10.63;;;3.10;;
4307;SDS011;2167;53.448;9.984;2023-08-20T10:17:36;5.13;;;2.10;;
4307;SDS011;2167;53.448;9.984;2023-08-20T10:20:03;3.43;;;2.37;;
4307;SDS011;2167;53.448;9.984;2023-08-20T10:22:36;6.10;;;1.90;;
4307;SDS011;2167;53.448;9.984;2023-08-20T10:25:06;5.90;;;2.43;;
4307;SDS011;2167;53.448;9.984;2023-08-20T10:27:33;5.53;;;2.33;;
4307;SDS011;2167;53.448;9.984;2023-08-20T10:29:59;2.73;;;2.50;;
4307;SDS011;2167;53.448;9.984;2023-08-20T10:32:44;3.33;;;2.23;;
4307;SDS011;2167;53.448;9.984;2023-08-20T10:35:11;5.70;;;2.70;;
4307;SDS011;2167;53.448;9.984;2023-08-20T10:37:37;4.80;;;2.47;;
4307;SDS011;2167;53.448;9.984;2023-08-20T10:40:05;4.47;;;2.63;;
4307;SDS011;2167;53.448;9.984;2023-08-20T10:42:31;3.77;;;2.50;;
4307;SDS011;2167;53.448;9.984;2023-08-20T10:45:06;3.80;;;1.93;;
4307;SDS011;2167;53.448;9.984;2023-08-20T10:47:36;2.67;;;2.20;;
4307;SDS011;2167;53.448;9.984;2023-08-20T10:50:02;2.27;;;2.07;;
4307;SDS011;2167;53.448;9.984;2023-08-20T10:52:28;3.90;;;2.83;;
4307;SDS011;2167;53.448;9.984;2023-08-20T10:54:55;3.40;;;2.10;;
4307;SDS011;2167;53.448;9.984;2023-08-20T10:57:22;4.63;;;2.50;;
4307;SDS011;2167;53.448;9.984;2023-08-20T10:59:58;7.60;;;2.40;;
4307;SDS011;2167;53.448;9.984;2023-08-20T11:02:30;5.40;;;2.27;;
4307;SDS011;2167;53.448;9.984;2023-08-20T11:04:56;3.47;;;2.30;;
4307;SDS011;2167;53.448;9.984;2023-08-20T11:07:23;3.67;;;2.20;;
4307;SDS011;2167;53.448;9.984;2023-08-20T11:09:52;3.00;;;2.70;;
4307;SDS011;2167;53.448;9.984;2023-08-20T11:12:19;3.00;;;2.57;;
4307;SDS011;2167;53.448;9.984;2023-08-20T11:14:46;2.73;;;2.33;;
4307;SDS011;2167;53.448;9.984;2023-08-20T11:17:12;3.23;;;2.20;;
4307;SDS011;2167;53.448;9.984;2023-08-20T11:19:38;3.70;;;2.60;;
4307;SDS011;2167;53.448;9.984;2023-08-20T11:22:05;7.03;;;2.60;;
4307;SDS011;2167;53.448;9.984;2023-08-20T11:24:31;3.20;;;2.73;;
4307;SDS011;2167;53.448;9.984;2023-08-20T11:26:57;5.50;;;2.47;;
4307;SDS011;2167;53.448;9.984;2023-08-20T11:29:25;5.40;;;2.73;;
4307;SDS011;2167;53.448;9.984;2023-08-20T11:31:52;4.60;;;2.63;;
4307;SDS011;2167;53.448;9.984;2023-08-20T11:34:18;2.60;;;2.40;;
4307;SDS011;2167;53.448;9.984;2023-08-20T11:36:44;6.43;;;3.07;;
4307;SDS011;2167;53.448;9.984;2023-08-20T11:39:10;4.53;;;3.23;;
4307;SDS011;2167;53.448;9.984;2023-08-20T11:41:36;4.90;;;2.40;;
4307;SDS011;2167;53.448;9.984;2023-08-20T11:44:03;3.67;;;2.60;;
4307;SDS011;2167;53.448;9.984;2023-08-20T11:46:29;3.27;;;2.50;;
4307;SDS011;2167;53.448;9.984;2023-08-20T11:49:13;3.70;;;2.70;;
4307;SDS011;2167;53.448;9.984;2023-08-20T11:51:40;5.17;;;2.90;;
4307;SDS011;2167;53.448;9.984;2023-08-20T11:54:07;6.03;;;2.90;;
4307;SDS011;2167;53.448;9.984;2023-08-20T11:56:42;4.30;;;2.77;;
4307;SDS011;2167;53.448;9.984;2023-08-20T11:59:10;5.87;;;2.83;;
4307;SDS011;2167;53.448;9.984;2023-08-20T12:01:36;3.00;;;2.70;;
4307;SDS011;2167;53.448;9.984;2023-08-20T12:04:09;5.00;;;2.77;;
4307;SDS011;2167;53.448;9.984;2023-08-20T12:06:36;3.73;;;3.33;;
4307;SDS011;2167;53.448;9.984;2023-08-20T12:09:12;4.87;;;3.10;;
4307;SDS011;2167;53.448;9.984;2023-08-20T12:11:48;4.80;;;3.50;;
4307;SDS011;2167;53.448;9.984;2023-08-20T12:14:14;3.47;;;3.20;;
4307;SDS011;2167;53.448;9.984;2023-08-20T12:16:40;5.23;;;3.30;;
4307;SDS011;2167;53.448;9.984;2023-08-20T12:19:06;4.17;;;3.20;;
4307;SDS011;2167;53.448;9.984;2023-08-20T12:21:34;3.60;;;3.30;;
4307;SDS011;2167;53.448;9.984;2023-08-20T12:24:00;8.40;;;4.37;;
4307;SDS011;2167;53.448;9.984;2023-08-20T12:26:26;6.20;;;3.80;;
4307;SDS011;2167;53.448;9.984;2023-08-20T12:28:52;4.27;;;3.87;;
4307;SDS011;2167;53.448;9.984;2023-08-20T12:31:18;5.77;;;3.03;;
4307;SDS011;2167;53.448;9.984;2023-08-20T12:33:44;3.57;;;3.07;;
4307;SDS011;2167;53.448;9.984;2023-08-20T12:36:10;4.50;;;2.37;;
4307;SDS011;2167;53.448;9.984;2023-08-20T12:38:36;6.80;;;3.47;;
4307;SDS011;2167;53.448;9.984;2023-08-20T12:41:02;4.60;;;2.90;;
4307;SDS011;2167;53.448;9.984;2023-08-20T12:43:29;7.30;;;3.87;;
4307;SDS011;2167;53.448;9.984;2023-08-20T12:45:55;4.57;;;2.87;;
4307;SDS011;2167;53.448;9.984;2023-08-20T12:48:21;6.83;;;3.23;;
4307;SDS011;2167;53.448;9.984;2023-08-20T12:50:47;3.33;;;3.03;;
4307;SDS011;2167;53.448;9.984;2023-08-20T12:53:13;4.20;;;3.03;;
4307;SDS011;2167;53.448;9.984;2023-08-20T12:55:39;4.77;;;3.50;;
4307;SDS011;2167;53.448;9.984;2023-08-20T12:58:05;4.53;;;2.77;;
4307;SDS011;2167;53.448;9.984;2023-08-20T13:00:31;3.63;;;3.27;;
4307;SDS011;2167;53.448;9.984;2023-08-20T13:02:58;4.97;;;3.70;;
4307;SDS011;2167;53.448;9.984;2023-08-20T13:05:24;3.47;;;3.03;;
4307;SDS011;2167;53.448;9.984;2023-08-20T13:07:51;3.57;;;2.63;;
4307;SDS011;2167;53.448;9.984;2023-08-20T13:10:17;4.33;;;2.70;;
4307;SDS011;2167;53.448;9.984;2023-08-20T13:12:46;4.00;;;3.10;;
4307;SDS011;2167;53.448;9.984;2023-08-20T13:15:14;7.70;;;3.23;;
4307;SDS011;2167;53.448;9.984;2023-08-20T13:17:41;5.93;;;2.60;;
4307;SDS011;2167;53.448;9.984;2023-08-20T13:20:07;3.50;;;2.70;;
4307;SDS011;2167;53.448;9.984;2023-08-20T13:22:33;4.10;;;3.10;;
4307;SDS011;2167;53.448;9.984;2023-08-20T13:24:59;4.40;;;2.80;;
4307;SDS011;2167;53.448;9.984;2023-08-20T13:27:25;5.70;;;2.80;;
4307;SDS011;2167;53.448;9.984;2023-08-20T13:29:51;3.23;;;2.87;;
4307;SDS011;2167;53.448;9.984;2023-08-20T13:32:18;3.50;;;3.20;;
4307;SDS011;2167;53.448;9.984;2023-08-20T13:34:44;4.30;;;3.40;;
4307;SDS011;2167;53.448;9.984;2023-08-20T13:37:10;4.77;;;3.23;;
4307;SDS011;2167;53.448;9.984;2023-08-20T13:39:36;4.03;;;3.30;;
4307;SDS011;2167;53.448;9.984;2023-08-20T13:42:02;5.50;;;3.20;;
4307;SDS011;2167;53.448;9.984;2023-08-20T13:44:28;3.70;;;3.40;;
4307;SDS011;2167;53.448;9.984;2023-08-20T13:46:54;4.80;;;4.03;;
4307;SDS011;2167;53.448;9.984;2023-08-20T13:49:20;3.60;;;3.30;;
4307;SDS011;2167;53.448;9.984;2023-08-20T13:51:46;3.53;;;2.80;;
4307;SDS011;2167;53.448;9.984;2023-08-20T13:54:12;6.27;;;3.00;;
4307;SDS011;2167;53.448;9.984;2023-08-20T13:56:38;4.33;;;2.77;;
4307;SDS011;2167;53.448;9.984;2023-08-20T13:59:04;5.37;;;3.30;;
4307;SDS011;2167;53.448;9.984;2023-08-20T14:01:30;3.03;;;2.70;;
4307;SDS011;2167;53.448;9.984;2023-08-20T14:03:56;3.47;;;2.73;;
4307;SDS011;2167;53.448;9.984;2023-08-20T14:06:22;4.83;;;2.93;;
4307;SDS011;2167;53.448;9.984;2023-08-20T14:08:48;3.43;;;2.53;;
4307;SDS011;2167;53.448;9.984;2023-08-20T14:11:14;5.73;;;2.73;;
4307;SDS011;2167;53.448;9.984;2023-08-20T14:13:40;4.40;;;3.07;;
4307;SDS011;2167;53.448;9.984;2023-08-20T14:16:07;4.20;;;3.23;;
4307;SDS011;2167;53.448;9.984;2023-08-20T14:18:33;4.53;;;2.60;;
4307;SDS011;2167;53.448;9.984;2023-08-20T14:20:59;2.60;;;2.40;;
4307;SDS011;2167;53.448;9.984;2023-08-20T14:23:25;3.33;;;2.70;;
4307;SDS011;2167;53.448;9.984;2023-08-20T14:25:51;7.13;;;3.07;;
4307;SDS011;2167;53.448;9.984;2023-08-20T14:28:19;4.70;;;2.60;;
4307;SDS011;2167;53.448;9.984;2023-08-20T14:30:45;10.63;;;3.13;;
4307;SDS011;2167;53.448;9.984;2023-08-20T14:33:11;7.43;;;2.90;;
4307;SDS011;2167;53.448;9.984;2023-08-20T14:35:37;3.60;;;3.30;;
4307;SDS011;2167;53.448;9.984;2023-08-20T14:38:03;5.43;;;2.87;;
4307;SDS011;2167;53.448;9.984;2023-08-20T14:40:29;6.77;;;3.30;;
4307;SDS011;2167;53.448;9.984;2023-08-20T14:42:56;3.83;;;3.40;;
4307;SDS011;2167;53.448;9.984;2023-08-20T14:45:22;6.27;;;2.77;;
4307;SDS011;2167;53.448;9.984;2023-08-20T14:47:48;2.83;;;2.53;;
4307;SDS011;2167;53.448;9.984;2023-08-20T14:50:14;3.83;;;3.30;;
4307;SDS011;2167;53.448;9.984;2023-08-20T14:52:40;5.17;;;2.50;;
4307;SDS011;2167;53.448;9.984;2023-08-20T14:55:06;3.00;;;2.67;;
4307;SDS011;2167;53.448;9.984;2023-08-20T14:57:34;4.67;;;2.63;;
4307;SDS011;2167;53.448;9.984;2023-08-20T15:00:01;2.40;;;2.20;;
4307;SDS011;2167;53.448;9.984;2023-08-20T15:02:28;2.67;;;2.23;;
4307;SDS011;2167;53.448;9.984;2023-08-20T15:04:54;2.43;;;2.23;;
4307;SDS011;2167;53.448;9.984;2023-08-20T15:07:20;4.43;;;2.80;;
4307;SDS011;2167;53.448;9.984;2023-08-20T15:09:47;5.73;;;2.93;;
4307;SDS011;2167;53.448;9.984;2023-08-20T15:12:13;5.33;;;2.70;;
4307;SDS011;2167;53.448;9.984;2023-08-20T15:14:39;3.00;;;2.73;;